Time;durP1;ratioP1;P1;durP2;ratioP2;P2;SDS_P1;SDS_P2;PMS_P1;PMS_P2;Temp;Humidity;BMP_temperature;BMP_pressure;BME280_temperature;BME280_humidity;BME280_pressure;Samples;Min_cycle;Max_cycle;Signal;HPM_P1;HPM_P2
2022/07/04 00:01:26;;;;;;;2.80;1.40;;;;;;;20.00;75.42;101100.44;10506506;28;20044;-75
2022/07/04 00:06:28;;;;;;;2.70;1.50;;;;;;;;;;10490352;28;20045;-75
2022/07/04 00:11:30;;;;;;;3.90;1.48;;;;;;;19.90;74.92;101111.09;10487126;28;20660;-74
2022/07/04 00:16:34;;;;;;;2.45;1.63;;;;;;;19.90;75.08;101111.91;10487245;28;20052;-75
2022/07/04 00:21:36;;;;;;;1.63;1.52;;;;;;;19.87;74.65;101102.25;10481545;28;20041;-75
2022/07/04 00:26:38;;;;;;;2.17;1.40;;;;;;;19.85;74.33;101099.00;10484909;28;20068;-75
2022/07/04 00:31:41;;;;;;;2.15;1.58;;;;;;;19.81;74.64;101102.78;10448478;28;20511;-75
2022/07/04 00:36:43;;;;;;;1.48;1.38;;;;;;;19.78;74.29;101100.63;10469707;28;20037;-74
2022/07/04 00:41:45;;;;;;;1.48;1.38;;;;;;;19.71;74.52;101117.88;10468785;28;20057;-75
2022/07/04 00:46:48;;;;;;;1.58;1.42;;;;;;;19.72;74.67;101111.16;10458684;28;20056;-76
2022/07/04 00:51:50;;;;;;;1.88;1.17;;;;;;;19.71;74.44;101123.44;10492358;28;20471;-73
2022/07/04 00:56:53;;;;;;;2.22;1.30;;;;;;;19.74;74.38;101113.59;10459478;28;20048;-75
2022/07/04 01:01:56;;;;;;;2.95;1.88;;;;;;;19.68;74.55;101112.16;10442293;28;20076;-74
2022/07/04 01:06:58;;;;;;;4.63;1.75;;;;;;;19.64;74.45;101122.31;10450282;28;20052;-74
2022/07/04 01:12:00;;;;;;;1.80;1.58;;;;;;;19.60;74.94;101118.53;10465249;28;20500;-74
2022/07/04 01:17:03;;;;;;;1.58;1.48;;;;;;;19.58;74.87;101130.00;10466471;28;20041;-77
2022/07/04 01:22:06;;;;;;;2.03;1.55;;;;;;;19.55;74.67;101137.06;10476156;28;20064;-77
2022/07/04 01:27:08;;;;;;;1.77;1.67;;;;;;;19.50;75.45;101136.38;10486818;28;20049;-77
2022/07/04 01:32:12;;;;;;;1.70;1.60;;;;;;;19.49;75.16;101145.88;10475944;28;20041;-78
2022/07/04 01:37:16;;;;;;;2.35;1.52;;;;;;;19.49;75.23;101138.34;10482056;28;20037;-78
2022/07/04 01:42:18;;;;;;;2.33;1.50;;;;;;;19.48;75.23;101142.28;10437805;28;20570;-79
2022/07/04 01:47:21;;;;;;;2.40;1.70;;;;;;;19.45;75.71;101139.34;10482023;28;20052;-78
2022/07/04 01:52:24;;;;;;;3.72;1.85;;;;;;;19.49;75.83;101143.09;10483223;28;20495;-79
2022/07/04 01:57:29;;;;;;;2.30;1.42;;;;;;;19.54;75.40;101140.19;10462888;28;20052;-78
2022/07/04 02:02:32;;;;;;;1.85;1.30;;;;;;;19.57;75.94;101133.94;10479962;28;20040;-78
2022/07/04 02:07:34;;;;;;;4.45;1.40;;;;;;;19.60;75.61;101136.06;10479851;28;20044;-78
2022/07/04 02:17:58;;;;;;;2.55;1.50;;;;;;;19.85;75.68;101124.06;10473378;28;20045;-78
2022/07/04 02:23:01;;;;;;;4.10;1.42;;;;;;;20.07;74.96;101125.78;10484065;28;20052;-77
2022/07/04 02:28:03;;;;;;;3.83;1.15;;;;;;;20.26;74.24;101128.16;10463156;28;20508;-78
2022/07/04 02:33:05;;;;;;;2.35;1.25;;;;;;;20.48;72.98;101129.91;10475452;28;20443;-78
2022/07/04 02:38:07;;;;;;;1.33;1.23;;;;;;;20.71;72.14;101136.84;10478905;28;20411;-78
2022/07/04 02:43:10;;;;;;;3.45;1.60;;;;;;;20.91;71.51;101126.84;10477831;28;20562;-78
2022/07/04 02:48:12;;;;;;;3.38;1.40;;;;;;;21.05;71.06;101132.16;10474869;28;20052;-78
2022/07/04 02:53:14;;;;;;;3.33;1.30;;;;;;;21.28;70.72;101122.31;10477957;28;20052;-78
2022/07/04 02:58:16;;;;;;;2.85;1.55;;;;;;;21.58;69.41;101125.81;10478593;28;20049;-78
2022/07/04 03:03:18;;;;;;;2.22;1.45;;;;;;;21.85;68.21;101132.75;10473548;28;20116;-78
2022/07/04 03:08:20;;;;;;;3.88;1.38;;;;;;;22.19;67.58;101130.75;10497734;28;20037;-78
2022/07/04 03:13:24;;;;;;;3.85;1.20;;;;;;;22.44;66.05;101126.81;10493084;28;20045;-77
2022/07/04 03:18:26;;;;;;;1.50;1.40;;;;;;;22.38;65.74;101125.41;10495649;28;20053;-77
2022/07/04 03:23:28;;;;;;;2.03;1.73;;;;;;;22.52;65.38;101127.84;10496864;28;20044;-77
2022/07/04 03:28:31;;;;;;;2.03;1.40;;;;;;;22.82;64.63;101139.63;10492377;28;20049;-77
2022/07/04 03:33:33;;;;;;;2.97;1.83;;;;;;;23.15;63.47;101120.66;10494962;28;20515;-77
2022/07/04 03:38:35;;;;;;;4.15;2.17;;;;;;;23.48;62.40;101128.03;10491969;28;20040;-77
2022/07/04 03:43:37;;;;;;;2.03;1.42;;;;;;;23.77;62.10;101119.25;10487583;28;20041;-80
2022/07/04 03:48:43;;;;;;;2.92;1.40;;;;;;;24.05;60.80;101124.00;10473706;28;20594;-78
2022/07/04 03:53:45;;;;;;;2.83;1.75;;;;;;;24.19;59.88;101117.94;10486691;28;20044;-78
2022/07/04 03:58:48;;;;;;;2.83;1.65;;;;;;;24.39;59.98;101114.06;10489134;28;20045;-78
2022/07/04 04:09:16;;;;;;;5.75;2.00;;;;;;;24.71;58.31;101106.41;10489756;28;20075;-79
2022/07/04 04:14:18;;;;;;;2.88;1.27;;;;;;;24.97;57.45;101111.41;10490388;28;20041;-79
2022/07/04 04:19:20;;;;;;;3.17;1.50;;;;;;;25.17;57.86;101109.47;10489523;28;20045;-79
2022/07/04 04:24:23;;;;;;;2.83;1.48;;;;;;;25.49;56.96;101105.31;10490161;28;20041;-79
2022/07/04 04:29:25;;;;;;;1.88;1.30;;;;;;;25.72;55.87;101096.97;10484055;28;20625;-78
2022/07/04 04:34:27;;;;;;;1.90;1.40;;;;;;;26.00;54.61;101096.66;10487717;28;20055;-78
2022/07/04 04:39:30;;;;;;;4.28;1.40;;;;;;;26.11;54.32;101099.66;10483334;28;20044;-78
2022/07/04 04:44:32;;;;;;;2.80;1.27;;;;;;;26.37;54.62;101099.72;10486679;28;20041;-78
2022/07/04 04:49:34;;;;;;;2.20;1.30;;;;;;;26.52;53.78;101095.13;10487306;28;20052;-78
2022/07/04 04:54:37;;;;;;;2.83;1.60;;;;;;;26.70;52.53;101087.75;10487384;28;20045;-78
2022/07/04 04:59:39;;;;;;;2.13;1.70;;;;;;;26.71;52.51;101099.81;10487674;28;20064;-78
2022/07/04 05:04:41;;;;;;;5.05;1.75;;;;;;;26.89;52.54;101091.63;10487560;28;20060;-77
2022/07/04 05:09:44;;;;;;;3.03;1.13;;;;;;;27.10;51.47;101085.53;10486046;28;20044;-77
2022/07/04 05:14:46;;;;;;;1.50;1.40;;;;;;;27.29;51.84;101086.16;10486873;28;20064;-78
2022/07/04 05:19:48;;;;;;;1.60;1.50;;;;;;;27.39;50.43;101078.19;10481737;28;20047;-77
2022/07/04 05:24:50;;;;;;;1.92;1.25;;;;;;;27.54;50.65;101071.53;10468611;28;20045;-77
2022/07/04 05:29:53;;;;;;;1.63;1.25;;;;;;;27.73;49.61;101074.19;10455944;28;20136;-78
2022/07/04 05:34:56;;;;;;;2.70;1.30;;;;;;;27.95;50.34;101071.59;10486797;28;20864;-77
2022/07/04 05:39:58;;;;;;;4.68;1.42;;;;;;;28.16;49.39;101066.94;10486098;28;20037;-78
2022/07/04 05:45:00;;;;;;;3.53;1.27;;;;;;;28.68;47.99;101062.06;10485802;28;20526;-77
2022/07/04 05:50:02;;;;;;;1.35;1.17;;;;;;;28.95;47.23;101068.28;10485733;28;20043;-77
2022/07/04 05:55:07;;;;;;;2.35;1.30;;;;;;;29.07;46.30;101065.13;10485565;28;20041;-77
2022/07/04 06:00:11;;;;;;;1.55;1.15;;;;;;;28.84;46.47;101061.75;10484189;28;20055;-77
2022/07/04 06:05:13;;;;;;;1.70;1.60;;;;;;;29.17;45.42;101063.56;10467316;28;20048;-77
2022/07/04 06:10:15;;;;;;;3.28;1.33;;;;;;;29.41;44.91;101064.81;10484241;28;20045;-78
2022/07/04 06:15:18;;;;;;;3.63;1.25;;;;;;;29.64;44.60;101065.31;10485110;28;20156;-78
2022/07/04 06:20:20;;;;;;;5.28;1.38;;;;;;;30.00;43.96;101066.16;10484190;28;20049;-78
2022/07/04 06:25:23;;;;;;;2.20;1.42;;;;;;;30.18;43.50;101062.53;10484917;28;20104;-78
2022/07/04 06:30:25;;;;;;;2.80;1.38;;;;;;;30.50;43.19;101077.47;10483191;28;20047;-78
2022/07/04 06:35:44;;;;;;;2.15;1.50;;;;;;;30.97;42.19;101064.03;10483413;28;20044;-78
2022/07/04 06:40:49;;;;;;;1.50;1.40;;;;;;;30.84;41.84;101060.84;10437420;28;20049;-77
2022/07/04 06:45:52;;;;;;;1.27;1.17;;;;;;;30.57;42.55;101065.34;10479846;28;20519;-77
2022/07/04 06:50:54;;;;;;;3.33;1.90;;;;;;;30.11;42.97;101060.53;10484221;28;20411;-77
2022/07/04 06:56:01;;;;;;;2.22;1.67;;;;;;;29.49;44.63;101060.03;10483838;28;20052;-78
2022/07/04 07:01:03;;;;;;;5.53;1.33;;;;;;;29.81;44.08;101057.25;10484424;28;20397;-78
2022/07/04 07:06:06;;;;;;;4.50;1.92;;;;;;;30.50;42.66;101059.69;10482720;28;20392;-78
2022/07/04 07:11:16;;;;;;;1.95;1.30;;;;;;;30.48;42.20;101056.44;10478463;28;20065;-78
2022/07/04 07:16:19;;;;;;;3.10;1.48;;;;;;;30.68;42.03;101054.81;10484416;28;20045;-78
2022/07/04 07:21:21;;;;;;;2.97;1.52;;;;;;;30.68;42.36;101054.00;10465124;28;20053;-78
2022/07/04 07:26:25;;;;;;;3.05;1.67;;;;;;;30.65;41.50;101054.81;10484298;28;20530;-78
2022/07/04 07:31:27;;;;;;;3.95;1.67;;;;;;;30.47;41.78;101061.31;10480146;28;20037;-78
2022/07/04 07:36:29;;;;;;;1.95;1.45;;;;;;;30.62;41.61;101059.28;10471845;28;20045;-78
2022/07/04 07:41:32;;;;;;;2.15;1.33;;;;;;;31.14;41.06;101053.84;10469149;28;20427;-78
2022/07/04 07:46:34;;;;;;;1.67;1.55;;;;;;;30.86;40.66;101051.91;10488652;28;20045;-78
2022/07/04 07:51:37;;;;;;;2.00;1.48;;;;;;;30.57;40.83;101057.66;10442488;28;20053;-79
2022/07/04 07:56:44;;;;;;;4.38;1.70;;;;;;;30.97;40.23;101063.22;10461603;28;20046;-79
2022/07/04 08:01:47;;;;;;;1.90;1.38;;;;;;;30.81;40.50;101058.81;10447930;28;20393;-81
2022/07/04 08:06:49;;;;;;;3.92;1.75;;;;;;;30.86;40.79;101055.56;10477928;28;20037;-79
2022/07/04 08:11:52;;;;;;;5.10;1.95;;;;;;;30.88;40.27;101046.66;10479728;28;20037;-78
2022/07/04 08:16:56;;;;;;;5.05;1.98;;;;;;;30.68;40.06;101043.47;10479898;28;20060;-77
2022/07/04 08:21:58;;;;;;;4.15;1.73;;;;;;;30.40;40.11;101043.53;10445188;28;20518;-80
2022/07/04 08:27:00;;;;;;;3.13;1.70;;;;;;;30.12;40.97;101044.34;10452446;28;20428;-91
2022/07/04 08:32:03;;;;;;;2.25;1.95;;;;;;;29.76;41.50;101035.03;10462729;28;20037;-82
2022/07/04 08:37:06;;;;;;;2.42;1.83;;;;;;;29.83;41.36;101029.38;10480779;28;20044;-84
2022/07/04 08:42:12;;;;;;;1.80;1.70;;;;;;;29.74;41.77;101031.78;10461872;28;20507;-84
2022/07/04 08:47:23;;;;;;;2.92;1.60;;;;;;;30.23;40.62;101026.16;10480378;28;20049;-83
2022/07/04 08:52:36;;;;;;;2.47;1.73;;;;;;;30.84;39.49;101029.66;10444065;28;20034;-83
2022/07/04 09:03:02;;;;;;;3.28;1.67;;;;;;;31.01;38.28;101025.16;10461951;28;20494;-87
2022/07/04 09:08:04;;;;;;;1.77;1.52;;;;;;;30.99;37.70;101019.06;10480734;28;20582;-85
2022/07/04 09:13:08;;;;;;;2.00;1.67;;;;;;;30.46;38.54;101017.22;10479051;28;20067;-84
2022/07/04 09:18:31;;;;;;;2.35;1.60;;;;;;;30.03;39.27;101007.97;10437419;28;20045;-83
2022/07/04 09:23:36;;;;;;;2.65;1.90;;;;;;;30.02;39.26;101001.47;10467738;28;20063;-86
2022/07/04 09:28:43;;;;;;;4.85;1.70;;;;;;;30.09;38.85;101000.69;10475336;28;20044;-83
2022/07/04 09:33:49;;;;;;;2.00;1.70;;;;;;;29.96;39.95;100996.63;10449019;28;20060;-81
2022/07/04 09:39:14;;;;;;;3.47;1.80;;;;;;;29.69;40.72;100994.22;10461004;28;20443;-80
2022/07/04 09:44:17;;;;;;;1.70;1.60;;;;;;;29.39;41.20;100990.91;10467108;28;20431;-80
2022/07/04 09:49:20;;;;;;;5.85;1.80;;;;;;;29.26;41.63;100987.66;10476168;28;20041;-81
2022/07/04 09:54:27;;;;;;;2.70;2.17;;;;;;;29.20;43.21;100983.59;10440921;28;20049;-83
2022/07/04 09:59:30;;;;;;;2.97;1.98;;;;;;;29.17;42.82;100977.97;10473839;28;20049;-78
2022/07/04 10:04:43;;;;;;;2.00;1.90;;;;;;;28.93;44.12;100969.00;10455159;28;20420;-83
2022/07/04 10:09:46;;;;;;;3.22;1.90;;;;;;;28.66;43.81;100965.63;10479523;28;20049;-83
2022/07/04 10:14:48;;;;;;;2.20;2.00;;;;;;;28.53;44.92;100964.38;10459060;28;20416;-86
2022/07/04 10:19:52;;;;;;;2.00;1.80;;;;;;;28.58;45.18;100952.69;10458044;28;20063;-84
2022/07/04 10:24:55;;;;;;;2.30;2.10;;;;;;;28.80;44.39;100964.88;10445188;28;20060;-83
2022/07/04 10:29:58;;;;;;;2.58;2.25;;;;;;;28.77;44.87;100951.53;10454006;28;20496;-84
2022/07/04 10:35:00;;;;;;;2.35;2.15;;;;;;;28.69;44.88;100947.09;10456297;28;20515;-80
2022/07/04 10:40:03;;;;;;;2.40;2.20;;;;;;;28.71;45.28;100945.47;10480067;28;20159;-81
2022/07/04 10:45:08;;;;;;;2.88;1.88;;;;;;;28.69;45.40;100941.44;10436595;28;20063;-78
2022/07/04 10:50:10;;;;;;;3.05;2.30;;;;;;;28.45;45.33;100932.44;10449157;28;20061;-81
2022/07/04 10:55:19;;;;;;;2.53;1.95;;;;;;;28.47;46.29;100932.06;10441657;28;20048;-81
2022/07/04 11:00:24;;;;;;;3.45;2.22;;;;;;;28.31;46.36;100934.41;10464692;28;20444;-81
2022/07/04 11:05:32;;;;;;;2.72;1.95;;;;;;;28.37;46.80;100941.28;10478127;28;20040;-81
2022/07/04 11:10:38;;;;;;;3.40;2.45;;;;;;;28.33;47.49;100941.28;10470815;28;20044;-82
2022/07/04 11:15:43;;;;;;;2.72;2.15;;;;;;;28.27;48.02;100936.38;10442777;28;20057;-82
2022/07/04 11:20:49;;;;;;;5.68;2.90;;;;;;;28.10;48.41;100937.88;10462475;28;20048;-80
2022/07/04 11:25:54;;;;;;;4.97;2.67;;;;;;;27.91;47.88;100938.94;10478341;28;20037;-80
2022/07/04 11:31:00;;;;;;;4.25;2.45;;;;;;;27.87;48.71;100930.47;10481325;28;20472;-80
2022/07/04 11:36:03;;;;;;;7.20;2.80;;;;;;;27.92;48.94;100938.56;10452175;28;20052;-79
2022/07/04 11:46:27;;;;;;;3.38;2.60;;;;;;;27.88;48.82;100926.44;10460586;28;20037;-78
2022/07/04 11:51:29;;;;;;;3.30;2.67;;;;;;;27.86;47.46;100919.59;10475318;28;20037;-77
2022/07/04 11:56:36;;;;;;;3.05;2.75;;;;;;;27.88;47.84;100926.44;10479392;28;20562;-75
2022/07/04 12:01:43;;;;;;;3.30;2.75;;;;;;;27.81;47.28;100928.41;10482913;28;20538;-75
2022/07/04 12:06:47;;;;;;;3.85;2.63;;;;;;;27.78;47.21;100930.03;10480672;28;20401;-75
2022/07/04 12:11:51;;;;;;;2.88;2.63;;;;;;;27.68;47.21;100915.81;10457330;28;20412;-79
2022/07/04 12:17:19;;;;;;;5.50;2.67;;;;;;;27.61;47.51;100910.91;10444140;28;20059;-78
2022/07/04 12:22:33;;;;;;;2.55;2.20;;;;;;;27.52;46.92;100913.25;10486688;28;20052;-76
2022/07/04 12:27:37;;;;;;;2.78;2.58;;;;;;;27.38;47.57;100908.28;10491186;28;20044;-76
2022/07/04 12:32:50;;;;;;;4.28;2.50;;;;;;;27.31;47.06;100902.59;10473054;28;20068;-77
2022/07/04 12:38:10;;;;;;;3.67;2.65;;;;;;;27.32;48.43;100895.78;10490912;28;20419;-77
2022/07/04 12:43:12;;;;;;;5.63;2.90;;;;;;;27.30;49.46;100887.72;10490110;28;20052;-76
2022/07/04 12:48:34;;;;;;;2.60;2.40;;;;;;;27.28;49.01;100876.03;10462817;28;20052;-77
2022/07/04 12:53:38;;;;;;;2.83;2.45;;;;;;;27.18;49.34;100888.00;10521784;28;20063;-77
2022/07/04 12:58:40;;;;;;;3.28;2.58;;;;;;;27.14;49.35;100881.53;10481241;28;20052;-77
2022/07/04 13:03:43;;;;;;;2.72;2.53;;;;;;;27.09;49.49;100873.44;10474452;28;20064;-77
2022/07/04 13:08:45;;;;;;;3.78;2.53;;;;;;;27.08;49.25;100871.00;10485521;28;20041;-77
2022/07/04 13:13:47;;;;;;;4.78;2.53;;;;;;;27.10;48.44;100872.22;10469594;28;20053;-75
2022/07/04 13:18:50;;;;;;;3.22;2.60;;;;;;;27.07;48.88;100872.97;10471169;28;20427;-75
2022/07/04 13:23:52;;;;;;;3.08;2.80;;;;;;;27.06;49.03;100862.09;10452808;28;20053;-75
2022/07/04 13:28:55;;;;;;;3.28;2.53;;;;;;;26.96;50.02;100857.97;10439811;28;20041;-75
2022/07/04 13:33:57;;;;;;;4.50;2.63;;;;;;;26.98;49.68;100859.19;10463416;28;20057;-78
2022/07/04 13:38:59;;;;;;;3.58;2.58;;;;;;;26.84;49.87;100861.88;10475639;28;20083;-76
2022/07/04 13:44:03;;;;;;;2.88;2.53;;;;;;;26.73;49.89;100860.97;10474469;28;20045;-79
2022/07/04 13:49:05;;;;;;;2.78;2.28;;;;;;;26.66;49.60;100861.69;10462627;28;20045;-77
2022/07/04 13:54:08;;;;;;;2.92;2.42;;;;;;;26.61;48.97;100849.97;10471020;28;20044;-76
2022/07/04 13:59:11;;;;;;;3.70;2.70;;;;;;;26.58;49.52;100848.72;10462146;28;20048;-80
2022/07/04 14:04:13;;;;;;;5.80;2.60;;;;;;;26.50;49.48;100834.94;10476422;28;20434;-76
2022/07/04 14:09:15;;;;;;;3.28;2.42;;;;;;;26.50;49.11;100834.94;10477723;28;20033;-76
2022/07/04 14:14:18;;;;;;;2.83;2.30;;;;;;;26.53;49.29;100829.34;10482889;28;20401;-75
2022/07/04 14:19:20;;;;;;;2.83;2.40;;;;;;;26.62;48.89;100818.63;10461272;28;20044;-79
2022/07/04 14:24:25;;;;;;;2.67;2.45;;;;;;;26.63;48.33;100820.22;10463533;28;20041;-78
2022/07/04 14:29:27;;;;;;;3.05;2.75;;;;;;;26.58;47.66;100808.53;10478224;28;20049;-79
2022/07/04 14:34:29;;;;;;;3.30;2.35;;;;;;;26.54;48.84;100807.66;10452436;28;20052;-78
2022/07/04 14:39:32;;;;;;;3.95;2.92;;;;;;;26.52;48.00;100807.22;10477290;28;20049;-81
2022/07/04 14:44:37;;;;;;;3.22;2.50;;;;;;;26.48;47.52;100798.75;10456042;28;20057;-77
2022/07/04 14:49:40;;;;;;;3.17;2.25;;;;;;;26.45;48.34;100796.72;10468477;28;20036;-76
2022/07/04 14:54:42;;;;;;;2.55;2.20;;;;;;;26.42;48.63;100797.50;10455350;28;20530;-78
2022/07/04 14:59:44;;;;;;;3.60;2.28;;;;;;;26.28;47.77;100794.47;10455446;28;20056;-76
2022/07/04 15:04:46;;;;;;;2.65;2.17;;;;;;;26.24;48.70;100788.00;10465287;28;20037;-76
2022/07/04 15:09:49;;;;;;;2.08;1.88;;;;;;;26.12;47.90;100775.00;10471915;28;20072;-81
2022/07/04 15:14:51;;;;;;;3.20;2.05;;;;;;;26.04;48.05;100781.75;10462537;28;20052;-79
2022/07/04 15:25:14;;;;;;;2.95;2.00;;;;;;;25.89;48.59;100777.94;10470192;28;20064;-78
2022/07/04 15:30:16;;;;;;;2.80;1.73;;;;;;;25.78;47.69;100777.78;10477520;28;20063;-80
2022/07/04 15:35:19;;;;;;;2.00;1.88;;;;;;;25.77;48.79;100769.75;10450310;28;20053;-79
2022/07/04 15:40:21;;;;;;;2.08;1.98;;;;;;;25.73;48.71;100772.50;10455811;28;20056;-80
2022/07/04 15:45:23;;;;;;;2.00;1.90;;;;;;;25.80;48.22;100766.16;10477458;28;20048;-80
2022/07/04 15:50:28;;;;;;;2.83;2.13;;;;;;;25.77;48.39;100766.94;10458921;28;20043;-86
2022/07/04 15:55:30;;;;;;;5.30;2.15;;;;;;;25.68;48.00;100769.19;10452046;28;20048;-84
2022/07/04 16:00:32;;;;;;;3.33;2.10;;;;;;;25.51;48.61;100771.38;10407731;28;20041;-84
2022/07/04 16:05:35;;;;;;;1.75;1.65;;;;;;;25.37;48.72;100762.72;10482242;28;20056;-81
2022/07/04 16:10:37;;;;;;;3.67;1.95;;;;;;;25.30;49.32;100778.66;10473994;28;20045;-84
2022/07/04 16:15:40;;;;;;;3.00;2.38;;;;;;;25.26;48.34;100775.78;10472250;28;20029;-84
2022/07/04 16:20:45;;;;;;;3.90;2.20;;;;;;;25.16;49.53;100770.81;10428896;28;20047;-85
2022/07/04 16:25:47;;;;;;;4.50;2.15;;;;;;;25.21;49.01;100771.31;10491079;28;20052;-86
2022/07/04 16:30:49;;;;;;;3.17;2.60;;;;;;;25.26;49.48;100770.19;10490785;28;20049;-85
2022/07/04 16:35:51;;;;;;;3.08;2.10;;;;;;;25.27;48.86;100785.03;10476645;28;20041;-86
2022/07/04 16:40:54;;;;;;;2.17;1.90;;;;;;;25.18;49.60;100783.31;10470278;28;20072;-85
2022/07/04 16:45:56;;;;;;;2.53;2.00;;;;;;;25.16;49.84;100784.84;10478741;28;20388;-86
2022/07/04 16:50:58;;;;;;;2.78;1.85;;;;;;;25.09;49.24;100779.94;10489470;28;20041;-85
2022/07/04 16:56:00;;;;;;;3.42;2.38;;;;;;;24.96;49.23;100770.88;10465940;28;20499;-86
2022/07/04 17:01:02;;;;;;;3.53;1.60;;;;;;;24.84;49.54;100775.88;10474238;28;20060;-85
2022/07/04 17:06:05;;;;;;;3.90;2.30;;;;;;;24.76;50.60;100766.50;10489815;28;20045;-86
2022/07/04 17:11:07;;;;;;;3.20;2.25;;;;;;;24.68;51.46;100773.19;10484782;28;20416;-84
2022/07/04 17:16:11;;;;;;;3.97;2.00;;;;;;;24.68;51.06;100770.41;10450620;28;20499;-85
2022/07/04 17:21:14;;;;;;;3.35;1.90;;;;;;;24.64;50.61;100763.88;10486290;28;20045;-85
2022/07/04 17:26:18;;;;;;;1.77;1.67;;;;;;;24.59;51.13;100762.22;10472268;28;20045;-85
2022/07/04 17:31:20;;;;;;;2.80;1.98;;;;;;;24.50;51.28;100761.66;10488292;28;20338;-85
2022/07/04 17:36:22;;;;;;;3.30;2.45;;;;;;;24.45;50.31;100769.53;10483932;28;20057;-85
2022/07/04 17:41:43;;;;;;;2.75;2.30;;;;;;;24.29;49.85;100756.44;10469117;28;20597;-86
2022/07/04 17:46:48;;;;;;;4.75;2.28;;;;;;;24.30;49.70;100760.06;10474511;28;20045;-85
2022/07/04 17:51:51;;;;;;;6.05;2.53;;;;;;;24.24;49.82;100751.09;10487398;28;20616;-85
2022/07/04 17:56:53;;;;;;;8.90;3.13;;;;;;;24.19;50.16;100759.81;10475522;28;20049;-85
2022/07/04 18:01:55;;;;;;;3.67;2.70;;;;;;;24.19;50.06;100770.22;10461741;28;20055;-85
2022/07/04 18:06:58;;;;;;;2.97;2.28;;;;;;;24.13;49.23;100771.72;10483969;28;20045;-85
2022/07/04 18:12:01;;;;;;;3.05;2.15;;;;;;;24.12;50.26;100759.66;10484316;28;20049;-85
2022/07/04 18:17:03;;;;;;;3.20;2.88;;;;;;;24.05;50.33;100760.34;10481011;28;20368;-85
2022/07/04 18:22:05;;;;;;;3.22;2.17;;;;;;;23.98;50.67;100760.22;10466341;28;20049;-85
2022/07/04 18:27:08;;;;;;;2.45;1.92;;;;;;;23.91;50.65;100760.03;10484023;28;20040;-85
2022/07/04 18:32:10;;;;;;;6.03;3.35;;;;;;;23.85;50.76;100761.53;10463240;28;20170;-84
2022/07/04 18:37:12;;;;;;;4.03;2.17;;;;;;;23.81;50.94;100766.25;10465769;28;20059;-84
2022/07/04 18:47:35;;;;;;;3.00;1.90;;;;;;;23.70;51.33;100760.41;10483954;28;20045;-85
2022/07/04 18:52:37;;;;;;;3.13;2.03;;;;;;;23.63;51.13;100757.47;10483898;28;20037;-84
2022/07/04 18:57:40;;;;;;;2.65;2.00;;;;;;;23.56;50.84;100748.03;10485025;28;20037;-84
2022/07/04 19:02:43;;;;;;;2.35;1.73;;;;;;;23.51;50.99;100749.16;10483998;28;20085;-85
2022/07/04 19:07:45;;;;;;;3.15;1.92;;;;;;;23.49;50.36;100754.31;10483188;28;20045;-85
2022/07/04 19:12:48;;;;;;;4.55;1.60;;;;;;;23.43;50.45;100750.19;10483399;28;20048;-85
2022/07/04 19:17:51;;;;;;;2.28;1.83;;;;;;;23.40;50.05;100739.69;10482900;28;20044;-85
2022/07/04 19:22:55;;;;;;;2.38;1.70;;;;;;;23.38;50.31;100745.66;10478778;28;20133;-85
2022/07/04 19:27:57;;;;;;;2.75;2.00;;;;;;;23.41;50.22;100749.72;10443385;28;20043;-81
2022/07/04 19:32:59;;;;;;;4.32;2.55;;;;;;;23.43;50.35;100751.00;10466268;28;20136;-80
2022/07/04 19:38:01;;;;;;;3.95;3.15;;;;;;;23.39;51.46;100754.88;10470932;28;20043;-81
2022/07/04 19:43:04;;;;;;;4.85;3.40;;;;;;;23.33;51.91;100751.53;10458936;28;20060;-80
2022/07/04 19:48:07;;;;;;;5.55;3.30;;;;;;;23.27;51.97;100752.19;10491813;28;20057;-82
2022/07/04 19:53:13;;;;;;;6.53;3.30;;;;;;;23.22;52.38;100752.47;10483070;28;20045;-84
2022/07/04 19:58:15;;;;;;;4.60;3.07;;;;;;;23.21;52.53;100748.84;10475431;28;20041;-83
2022/07/04 20:03:18;;;;;;;3.22;2.65;;;;;;;23.17;52.34;100748.78;10478314;28;20598;-83
2022/07/04 20:08:20;;;;;;;4.57;2.70;;;;;;;23.11;51.80;100741.84;10451102;28;20041;-82
2022/07/04 20:13:22;;;;;;;3.78;2.72;;;;;;;23.08;51.44;100736.97;10489971;28;20052;-81
2022/07/04 20:18:24;;;;;;;5.22;3.55;;;;;;;23.05;51.35;100734.06;10469552;28;20060;-81
2022/07/04 20:23:26;;;;;;;5.97;3.58;;;;;;;23.07;52.77;100732.53;10458736;28;20057;-81
2022/07/04 20:28:28;;;;;;;6.72;4.20;;;;;;;23.11;53.16;100735.44;10458906;28;20392;-79
2022/07/04 20:33:31;;;;;;;6.20;3.78;;;;;;;23.12;52.16;100735.06;10453012;28;20037;-78
2022/07/04 20:38:33;;;;;;;6.88;4.20;;;;;;;23.15;51.88;100725.13;10458676;28;20060;-79
2022/07/04 20:43:35;;;;;;;4.95;3.50;;;;;;;23.14;51.28;100724.31;10475435;28;20487;-80
2022/07/04 20:48:41;;;;;;;4.70;2.88;;;;;;;23.08;51.32;100722.97;10454084;28;20496;-78
2022/07/04 20:53:43;;;;;;;7.38;4.13;;;;;;;23.07;51.27;100712.94;10466429;28;20120;-76
2022/07/04 20:58:46;;;;;;;5.85;3.88;;;;;;;23.04;51.69;100716.47;10480798;28;20041;-82
2022/07/04 21:03:48;;;;;;;4.78;3.15;;;;;;;22.99;51.72;100708.34;10444103;28;20049;-82
2022/07/04 21:08:50;;;;;;;4.57;3.08;;;;;;;22.91;51.81;100709.38;10448650;28;20042;-83
2022/07/04 21:13:53;;;;;;;4.30;3.03;;;;;;;22.82;51.95;100700.34;10469497;28;20132;-83
2022/07/04 21:18:55;;;;;;;3.42;2.20;;;;;;;22.77;52.80;100697.78;10461394;28;20119;-76
2022/07/04 21:23:58;;;;;;;2.58;2.38;;;;;;;22.67;53.58;100689.94;10458818;28;20064;-78
2022/07/04 21:29:00;;;;;;;3.65;1.92;;;;;;;22.57;55.48;100682.91;10479838;28;20049;-77
2022/07/04 21:34:02;;;;;;;2.35;1.90;;;;;;;22.44;56.10;100679.38;10472129;28;20053;-77
2022/07/04 21:39:05;;;;;;;1.92;1.73;;;;;;;22.37;56.55;100670.81;10481436;28;20036;-76
2022/07/04 21:44:07;;;;;;;2.00;1.80;;;;;;;22.30;57.25;100670.63;10456299;28;20046;-77
2022/07/04 21:49:10;;;;;;;2.33;1.95;;;;;;;22.21;58.37;100673.59;10471929;28;20049;-77
2022/07/04 21:54:12;;;;;;;4.90;2.20;;;;;;;22.14;58.27;100676.19;10477137;28;20041;-76
2022/07/04 21:59:14;;;;;;;3.97;2.00;;;;;;;22.08;58.69;100680.44;10450572;28;20052;-80
2022/07/04 22:04:18;;;;;;;2.95;1.80;;;;;;;22.08;59.10;100665.66;10471304;28;20050;-77
2022/07/04 22:09:20;;;;;;;2.30;1.90;;;;;;;22.04;59.94;100671.13;10480372;28;20033;-76
2022/07/04 22:14:23;;;;;;;3.03;2.03;;;;;;;22.00;60.16;100674.97;10464244;28;20041;-75
2022/07/04 22:19:25;;;;;;;2.40;1.92;;;;;;;22.01;61.04;100669.03;10484927;28;20060;-77
2022/07/04 22:24:28;;;;;;;2.92;1.75;;;;;;;22.01;61.17;100674.59;10424592;28;20061;-76
2022/07/04 22:29:30;;;;;;;2.55;1.88;;;;;;;21.98;60.99;100673.34;10466398;28;20045;-76
2022/07/04 22:34:32;;;;;;;2.60;2.03;;;;;;;21.96;60.88;100678.47;10486827;28;20045;-76
2022/07/04 22:39:35;;;;;;;3.17;2.22;;;;;;;21.93;62.17;100673.63;10480501;28;20024;-76
2022/07/04 22:44:37;;;;;;;2.22;1.80;;;;;;;21.94;62.47;100666.84;10472986;28;20064;-77
2022/07/04 22:49:39;;;;;;;1.92;1.70;;;;;;;21.90;63.47;100657.56;10472134;28;20581;-85
2022/07/04 22:54:50;;;;;;;3.67;2.10;;;;;;;21.85;63.63;100660.59;10451798;28;20037;-76
2022/07/04 22:59:56;;;;;;;4.18;2.17;;;;;;;21.86;63.82;100661.41;10470702;28;20049;-78
2022/07/04 23:04:59;;;;;;;4.33;2.23;;;;;;;21.87;64.27;100657.47;10469304;28;20143;-77
2022/07/04 23:10:01;;;;;;;2.60;2.38;;;;;;;21.87;63.97;100658.28;10470111;28;20033;-78
2022/07/04 23:15:04;;;;;;;4.40;2.33;;;;;;;21.90;64.23;100660.38;10475920;28;20074;-77
2022/07/04 23:20:08;;;;;;;2.05;1.95;;;;;;;21.86;65.42;100653.84;10466315;28;20924;-77
2022/07/04 23:25:11;;;;;;;1.92;1.70;;;;;;;21.84;65.53;100663.75;10478255;28;20052;-78
2022/07/04 23:30:13;;;;;;;2.47;1.75;;;;;;;21.81;65.23;100658.88;10481740;28;20444;-77
2022/07/04 23:35:15;;;;;;;5.22;2.10;;;;;;;21.84;64.66;100675.75;10481041;28;20053;-77
2022/07/04 23:40:17;;;;;;;2.92;2.47;;;;;;;21.86;66.08;100672.59;10481528;28;20459;-77
2022/07/04 23:45:19;;;;;;;2.65;2.35;;;;;;;21.83;65.81;100673.31;10482022;28;20056;-77